Time;durP1;ratioP1;P1;durP2;ratioP2;P2;SDS_P1;SDS_P2;PMS_P1;PMS_P2;Temp;Humidity;BMP_temperature;BMP_pressure;BME280_temperature;BME280_humidity;BME280_pressure;Samples;Min_cycle;Max_cycle;Signal;HPM_P1;HPM_P2
2022/10/02 00:00:53;;;;;;;3.78;0.65;;;22.60;51.40;;;;;;5067975;28;20037;-44
2022/10/02 00:03:24;;;;;;;6.78;0.50;;;22.70;51.50;;;;;;5066282;28;20567;-46
2022/10/02 00:05:57;;;;;;;3.47;1.08;;;22.60;51.50;;;;;;5052998;28;20533;-45
2022/10/02 00:08:30;;;;;;;5.05;0.50;;;22.70;51.70;;;;;;5048988;28;20148;-47
2022/10/02 00:11:03;;;;;;;2.10;0.50;;;22.70;51.90;;;;;;5048124;28;20111;-47
2022/10/02 00:13:37;;;;;;;2.63;0.65;;;22.70;51.90;;;;;;5064867;28;20051;-46
2022/10/02 00:16:20;;;;;;;3.92;0.47;;;22.70;52.00;;;;;;5051665;28;20706;-47
2022/10/02 00:18:48;;;;;;;1.20;0.30;;;22.70;52.10;;;;;;5061247;28;20068;-45
2022/10/02 00:21:32;;;;;;;6.72;0.50;;;22.70;52.10;;;;;;5066987;28;20047;-44
2022/10/02 00:24:01;;;;;;;1.95;0.35;;;22.70;52.20;;;;;;5060318;28;20128;-47
2022/10/02 00:26:34;;;;;;;1.35;0.63;;;22.70;52.30;;;;;;5067133;28;20055;-46
2022/10/02 00:29:14;;;;;;;1.67;0.55;;;22.70;52.40;;;;;;5065079;28;20127;-45
2022/10/02 00:31:49;;;;;;;2.28;0.20;;;22.70;53.00;;;;;;5066079;28;20054;-45
2022/10/02 00:34:23;;;;;;;2.93;0.47;;;22.70;52.50;;;;;;5040886;28;20049;-44
2022/10/02 00:37:01;;;;;;;2.75;0.50;;;22.70;52.60;;;;;;5042848;28;20033;-46
2022/10/02 00:39:39;;;;;;;1.90;0.30;;;22.70;52.80;;;;;;5067195;28;20131;-44
2022/10/02 00:42:45;;;;;;;1.13;0.65;;;22.60;52.80;;;;;;5054716;28;20443;-47
2022/10/02 00:45:38;;;;;;;5.03;0.70;;;22.60;52.80;;;;;;5051576;28;20044;-45
2022/10/02 00:48:17;;;;;;;1.83;0.20;;;22.60;53.00;;;;;;5041211;28;20045;-46
2022/10/02 00:50:52;;;;;;;1.13;0.25;;;22.60;53.10;;;;;;5052967;28;20040;-44
2022/10/02 00:53:31;;;;;;;5.63;0.30;;;22.60;53.20;;;;;;5047947;28;20132;-46
2022/10/02 00:56:12;;;;;;;4.25;0.50;;;22.60;53.30;;;;;;5065658;28;20044;-46
2022/10/02 00:59:05;;;;;;;1.15;0.30;;;22.70;53.50;;;;;;5057246;28;20049;-49
2022/10/02 01:01:40;;;;;;;2.13;0.32;;;22.70;53.60;;;;;;5047688;28;20065;-46
2022/10/02 01:04:13;;;;;;;0.98;0.20;;;22.60;53.80;;;;;;5059431;28;20049;-46
2022/10/02 01:06:41;;;;;;;1.17;0.77;;;22.60;53.90;;;;;;5047836;28;20091;-45
2022/10/02 01:09:08;;;;;;;2.00;0.30;;;22.60;54.00;;;;;;5064555;28;20981;-46
2022/10/02 01:11:36;;;;;;;3.47;0.45;;;22.60;54.00;;;;;;5056235;28;20503;-46
2022/10/02 01:14:03;;;;;;;0.50;0.20;;;22.70;54.20;;;;;;5064552;28;20070;-47
2022/10/02 01:16:32;;;;;;;0.20;0.20;;;22.60;54.20;;;;;;5065060;28;20047;-48
2022/10/02 01:18:59;;;;;;;3.35;0.30;;;22.60;54.20;;;;;;5064051;28;20051;-46
2022/10/02 01:21:37;;;;;;;1.50;0.20;;;22.60;54.20;;;;;;5066822;28;20037;-46
2022/10/02 01:24:09;;;;;;;1.27;0.20;;;22.60;54.20;;;;;;5047235;28;20474;-48
2022/10/02 01:26:38;;;;;;;2.53;0.35;;;22.60;54.30;;;;;;5066069;28;20040;-46
2022/10/02 01:29:05;;;;;;;2.10;0.50;;;22.60;54.30;;;;;;5040836;28;20045;-47
2022/10/02 01:31:32;;;;;;;1.08;0.10;;;22.60;54.40;;;;;;5046740;28;20032;-47
2022/10/02 01:34:00;;;;;;;1.38;0.10;;;22.60;54.40;;;;;;5040479;28;20045;-47
2022/10/02 01:36:27;;;;;;;2.13;0.10;;;22.60;54.50;;;;;;5053426;28;20037;-47
2022/10/02 01:38:55;;;;;;;2.85;1.08;;;22.60;54.50;;;;;;5046848;28;20122;-47
2022/10/02 01:41:23;;;;;;;1.40;0.10;;;22.60;54.70;;;;;;5052904;28;20060;-47
2022/10/02 01:43:54;;;;;;;1.83;0.20;;;22.60;54.70;;;;;;5057645;28;20041;-46
2022/10/02 01:46:32;;;;;;;1.40;0.17;;;22.60;54.80;;;;;;5043196;28;20557;-47
2022/10/02 01:49:20;;;;;;;3.40;0.20;;;22.60;54.90;;;;;;5050999;28;20389;-47
2022/10/02 01:52:14;;;;;;;0.45;0.30;;;22.60;54.90;;;;;;5051036;28;20085;-48
2022/10/02 01:54:51;;;;;;;0.73;0.68;;;22.60;54.90;;;;;;5065779;28;20126;-47
2022/10/02 01:57:26;;;;;;;0.20;0.10;;;22.60;55.10;;;;;;5070068;28;20136;-48
2022/10/02 02:00:06;;;;;;;0.57;0.20;;;22.60;55.20;;;;;;5070083;28;20123;-47
2022/10/02 02:02:48;;;;;;;0.30;0.10;;;22.60;55.20;;;;;;5069829;28;20046;-49
2022/10/02 02:05:30;;;;;;;1.08;0.20;;;22.60;55.30;;;;;;5070159;28;20048;-49
2022/10/02 02:08:05;;;;;;;1.75;0.10;;;22.50;55.40;;;;;;5060956;28;20456;-47
2022/10/02 02:10:47;;;;;;;0.47;0.10;;;22.60;55.50;;;;;;5053097;28;20497;-46
2022/10/02 02:13:18;;;;;;;1.52;0.10;;;22.60;55.60;;;;;;5056619;28;20076;-49
2022/10/02 02:15:52;;;;;;;1.75;0.10;;;22.50;55.60;;;;;;5067046;28;20041;-47
2022/10/02 02:18:25;;;;;;;0.32;0.20;;;22.50;55.70;;;;;;5050345;28;20037;-49
2022/10/02 02:20:55;;;;;;;3.38;0.20;;;22.50;55.80;;;;;;5056481;28;20141;-46
2022/10/02 02:23:26;;;;;;;0.85;0.10;;;22.50;56.00;;;;;;5050691;28;20049;-46
2022/10/02 02:25:59;;;;;;;0.60;0.10;;;22.50;56.00;;;;;;5050376;28;20112;-49
2022/10/02 02:28:30;;;;;;;0.98;0.20;;;22.50;56.10;;;;;;5059853;28;20539;-46
2022/10/02 02:31:00;;;;;;;0.95;0.10;;;22.50;56.10;;;;;;5063607;28;20049;-50
2022/10/02 02:33:32;;;;;;;3.05;0.15;;;22.50;56.20;;;;;;5066467;28;20158;-47
2022/10/02 02:36:04;;;;;;;0.65;0.10;;;22.50;56.30;;;;;;5064279;28;20051;-46
2022/10/02 02:38:37;;;;;;;2.20;0.15;;;22.50;56.30;;;;;;5067279;28;20041;-47
2022/10/02 02:41:07;;;;;;;0.93;0.20;;;22.50;56.30;;;;;;5069028;28;20939;-46
2022/10/02 02:43:40;;;;;;;0.28;0.10;;;22.50;56.30;;;;;;5069174;28;20040;-46
2022/10/02 02:46:15;;;;;;;1.75;0.30;;;22.50;56.40;;;;;;5044524;28;20071;-46
2022/10/02 02:48:46;;;;;;;0.20;0.10;;;22.50;56.50;;;;;;5068825;28;20040;-47
2022/10/02 02:51:17;;;;;;;2.75;0.20;;;22.50;56.70;;;;;;5068976;28;20051;-47
2022/10/02 02:53:49;;;;;;;0.32;0.10;;;22.50;56.70;;;;;;5052266;28;20036;-47
2022/10/02 02:56:18;;;;;;;1.65;0.20;;;22.50;56.80;;;;;;5068874;28;20131;-46
2022/10/02 02:58:51;;;;;;;0.60;0.20;;;22.50;56.90;;;;;;5057015;28;20051;-45
2022/10/02 03:01:19;;;;;;;0.30;0.08;;;22.50;56.90;;;;;;5068554;28;20078;-46
2022/10/02 03:03:47;;;;;;;0.20;0.10;;;22.50;56.90;;;;;;5064666;28;20043;-45
2022/10/02 03:06:30;;;;;;;1.30;0.10;;;22.50;57.00;;;;;;5068856;28;20051;-45
2022/10/02 03:08:58;;;;;;;1.88;0.10;;;22.60;57.70;;;;;;5068765;28;20048;-49
2022/10/02 03:11:33;;;;;;;1.65;0.00;;;22.50;57.10;;;;;;5062172;28;20041;-47
2022/10/02 03:14:10;;;;;;;2.17;0.10;;;22.50;57.20;;;;;;5060032;28;20045;-47
2022/10/02 03:16:47;;;;;;;1.30;0.10;;;22.50;57.30;;;;;;5048948;28;20100;-46
2022/10/02 03:19:31;;;;;;;0.30;0.10;;;22.50;57.40;;;;;;5052585;28;20036;-46
2022/10/02 03:22:05;;;;;;;1.15;0.00;;;22.50;57.50;;;;;;5064058;28;20144;-46
2022/10/02 03:24:39;;;;;;;0.13;0.03;;;22.50;57.60;;;;;;5048944;28;20116;-45
2022/10/02 03:27:10;;;;;;;1.55;0.00;;;22.50;57.60;;;;;;5050288;28;20493;-49
2022/10/02 03:29:44;;;;;;;0.20;0.10;;;22.50;57.70;;;;;;5068065;28;20045;-45
2022/10/02 03:32:16;;;;;;;0.10;0.00;;;22.50;57.80;;;;;;5067987;28;20098;-46
2022/10/02 03:34:44;;;;;;;0.75;0.38;;;22.50;57.90;;;;;;5068236;28;20607;-47
2022/10/02 03:37:11;;;;;;;0.20;0.10;;;22.50;57.90;;;;;;5064500;28;20051;-45
2022/10/02 03:39:42;;;;;;;1.00;0.10;;;22.50;58.00;;;;;;5048958;28;20055;-46
2022/10/02 03:42:11;;;;;;;1.42;0.10;;;22.50;58.00;;;;;;5048752;28;20568;-46
2022/10/02 03:44:38;;;;;;;0.13;0.10;;;22.50;58.00;;;;;;5065425;28;20080;-47
2022/10/02 03:47:05;;;;;;;1.80;0.17;;;22.50;58.10;;;;;;5067368;28;20047;-47
2022/10/02 03:49:34;;;;;;;0.20;0.00;;;22.50;58.10;;;;;;5050861;28;20056;-46
2022/10/02 03:52:01;;;;;;;1.17;0.10;;;22.50;58.10;;;;;;5055285;28;20421;-46
2022/10/02 03:54:34;;;;;;;0.30;0.30;;;22.50;58.10;;;;;;5054200;28;20051;-46
2022/10/02 03:57:06;;;;;;;3.20;0.00;;;22.50;58.20;;;;;;5067672;28;20420;-45
2022/10/02 03:59:42;;;;;;;0.63;0.10;;;22.50;58.10;;;;;;5067644;28;20070;-47
2022/10/02 04:02:13;;;;;;;;;;;22.50;58.20;;;;;;5049057;28;20144;-46
2022/10/02 04:04:46;;;;;;;0.13;0.00;;;22.50;58.00;;;;;;5067667;28;20311;-47
2022/10/02 04:07:21;;;;;;;0.73;0.00;;;22.50;58.30;;;;;;5065884;28;20052;-45
2022/10/02 04:09:54;;;;;;;0.22;0.03;;;22.50;58.40;;;;;;5063691;28;20531;-46
2022/10/02 04:12:25;;;;;;;2.45;0.10;;;22.50;58.50;;;;;;5043164;28;20067;-46
2022/10/02 04:14:57;;;;;;;0.20;0.00;;;22.50;58.60;;;;;;5045054;28;20052;-47
2022/10/02 04:17:28;;;;;;;1.38;0.10;;;22.50;58.60;;;;;;5050649;28;20044;-45
2022/10/02 04:20:00;;;;;;;0.10;0.00;;;22.50;58.50;;;;;;5048288;28;20055;-45
2022/10/02 04:22:34;;;;;;;0.93;0.00;;;22.50;58.60;;;;;;5049000;28;20112;-47
2022/10/02 04:25:09;;;;;;;0.00;0.00;;;22.50;58.50;;;;;;5054406;28;20424;-46
2022/10/02 04:27:40;;;;;;;0.15;0.00;;;22.50;58.60;;;;;;5049245;28;20115;-47
2022/10/02 04:30:10;;;;;;;0.20;0.00;;;22.50;58.60;;;;;;5067258;28;20055;-46
2022/10/02 04:32:38;;;;;;;0.22;0.00;;;22.50;58.60;;;;;;5052656;28;20041;-47
2022/10/02 04:35:14;;;;;;;0.00;0.00;;;22.50;58.60;;;;;;5047265;28;20045;-45
2022/10/02 04:38:06;;;;;;;5.85;0.00;;;22.50;58.60;;;;;;5042793;28;20420;-50
2022/10/02 04:40:49;;;;;;;0.00;0.00;;;22.60;59.00;;;;;;5052807;28;20505;-52
2022/10/02 04:43:27;;;;;;;0.10;0.00;;;22.50;59.50;;;;;;5051541;28;20071;-53
2022/10/02 04:46:04;;;;;;;0.00;0.00;;;22.60;59.70;;;;;;5053347;28;20053;-55
2022/10/02 04:48:55;;;;;;;1.48;0.00;;;22.60;60.00;;;;;;5054403;28;20052;-54
2022/10/02 04:51:47;;;;;;;2.30;0.00;;;22.60;60.20;;;;;;5047002;28;20041;-50
2022/10/02 04:54:39;;;;;;;0.00;0.00;;;22.80;60.50;;;;;;5046680;28;20045;-54
2022/10/02 04:57:18;;;;;;;0.00;0.00;;;22.80;60.30;;;;;;5047365;28;20127;-55
2022/10/02 05:00:00;;;;;;;0.00;0.00;;;22.90;60.20;;;;;;5048007;28;20545;-55
2022/10/02 05:02:36;;;;;;;0.63;0.00;;;22.90;59.90;;;;;;5047724;28;20122;-52
2022/10/02 05:05:21;;;;;;;1.65;0.10;;;23.00;59.70;;;;;;5047821;28;20809;-52
2022/10/02 05:08:08;;;;;;;1.02;0.30;;;23.00;59.50;;;;;;5052221;28;20041;-52
2022/10/02 05:11:04;;;;;;;1.70;0.10;;;23.00;59.30;;;;;;5046512;28;20041;-53
2022/10/02 05:13:55;;;;;;;0.00;0.00;;;23.10;59.20;;;;;;5035234;28;20106;-56
2022/10/02 05:16:34;;;;;;;0.35;0.00;;;23.10;59.10;;;;;;5056794;28;20123;-53
2022/10/02 05:19:20;;;;;;;0.00;0.00;;;23.00;59.00;;;;;;5060308;28;20063;-55
2022/10/02 05:22:13;;;;;;;0.70;0.00;;;23.10;59.00;;;;;;5045444;28;20037;-56
2022/10/02 05:24:52;;;;;;;0.00;0.00;;;23.10;58.90;;;;;;5063197;28;20050;-52
2022/10/02 05:27:52;;;;;;;0.00;0.00;;;23.10;58.90;;;;;;5045505;28;20041;-55
2022/10/02 05:30:20;;;;;;;0.00;0.00;;;23.10;58.80;;;;;;5056596;28;20698;-51
2022/10/02 05:33:20;;;;;;;2.83;0.00;;;23.00;58.80;;;;;;5060754;28;20045;-57
2022/10/02 05:36:12;;;;;;;0.00;0.00;;;23.10;58.80;;;;;;5048858;28;20032;-56
2022/10/02 05:39:06;;;;;;;0.00;0.00;;;23.10;58.70;;;;;;5063616;28;20800;-54
2022/10/02 05:41:45;;;;;;;0.00;0.00;;;23.10;58.80;;;;;;5049951;28;20045;-52
2022/10/02 05:44:16;;;;;;;1.50;0.00;;;23.10;58.80;;;;;;5063237;28;20500;-52
2022/10/02 05:46:49;;;;;;;0.30;0.00;;;23.00;58.70;;;;;;5061317;28;20037;-53
2022/10/02 05:49:19;;;;;;;0.00;0.00;;;23.10;58.80;;;;;;5062572;28;20051;-56
2022/10/02 05:51:54;;;;;;;0.10;0.00;;;23.00;58.70;;;;;;5045292;28;20040;-53
2022/10/02 05:54:32;;;;;;;0.30;0.00;;;23.10;58.70;;;;;;5048631;28;20067;-51
2022/10/02 05:57:08;;;;;;;0.00;0.00;;;23.10;58.70;;;;;;5052834;28;20124;-50
2022/10/02 05:59:37;;;;;;;;;;;23.10;58.70;;;;;;5050661;28;20036;-52
2022/10/02 06:02:11;;;;;;;0.13;0.00;;;23.00;58.60;;;;;;5052822;28;19924;-53
2022/10/02 06:04:43;;;;;;;0.20;0.00;;;23.00;58.90;;;;;;5050150;28;20037;-52
2022/10/02 06:07:14;;;;;;;0.00;0.00;;;23.00;58.90;;;;;;5054796;28;20051;-54
2022/10/02 06:09:45;;;;;;;0.30;0.00;;;23.00;58.90;;;;;;5049922;28;20104;-54
2022/10/02 06:12:22;;;;;;;0.00;0.00;;;23.10;59.10;;;;;;5056445;28;20036;-55
2022/10/02 06:14:55;;;;;;;0.10;0.03;;;23.10;59.20;;;;;;5048601;28;20055;-53
2022/10/02 06:17:26;;;;;;;0.10;0.00;;;23.10;59.20;;;;;;5060165;28;20555;-52
2022/10/02 06:20:00;;;;;;;0.40;0.00;;;23.10;59.30;;;;;;5054373;28;20079;-54
2022/10/02 06:22:32;;;;;;;2.10;0.00;;;23.10;59.30;;;;;;5053469;28;20042;-56
2022/10/02 06:25:04;;;;;;;0.43;0.00;;;23.20;59.20;;;;;;5059647;28;20052;-52
2022/10/02 06:27:39;;;;;;;0.00;0.00;;;23.20;59.20;;;;;;5060342;28;20089;-48
2022/10/02 06:30:11;;;;;;;0.93;0.10;;;23.20;59.20;;;;;;5055829;28;20048;-53
2022/10/02 06:32:46;;;;;;;0.30;0.00;;;23.20;59.30;;;;;;5058617;28;20037;-55
2022/10/02 06:35:15;;;;;;;1.40;0.00;;;23.20;59.40;;;;;;5054390;28;20053;-58
2022/10/02 06:38:01;;;;;;;0.52;0.03;;;23.30;59.50;;;;;;5055379;28;20039;-45
2022/10/02 06:40:43;;;;;;;1.50;0.08;;;23.30;59.40;;;;;;5049599;28;20045;-49
2022/10/02 06:43:35;;;;;;;1.00;0.15;;;23.30;59.60;;;;;;5060302;28;20048;-49
2022/10/02 06:46:13;;;;;;;0.00;0.00;;;23.30;59.70;;;;;;5045464;28;20052;-47
2022/10/02 06:48:48;;;;;;;0.65;0.00;;;23.30;59.80;;;;;;5052810;28;20049;-52
2022/10/02 06:51:24;;;;;;;0.55;0.08;;;23.30;60.00;;;;;;5058307;28;20041;-49
2022/10/02 06:54:18;;;;;;;0.10;0.05;;;23.40;60.30;;;;;;5050685;28;20476;-48
2022/10/02 06:57:02;;;;;;;0.47;0.10;;;23.40;60.20;;;;;;5006588;28;20128;-48
2022/10/02 06:59:46;;;;;;;0.57;0.00;;;23.40;60.40;;;;;;5004108;28;20041;-49
2022/10/02 07:02:33;;;;;;;0.20;0.00;;;23.40;60.30;;;;;;5005867;28;20050;-48
2022/10/02 07:05:25;;;;;;;0.15;0.10;;;23.40;60.20;;;;;;4991112;28;20494;-48
2022/10/02 07:08:01;;;;;;;0.68;0.00;;;23.50;60.10;;;;;;5009301;28;20140;-49
2022/10/02 07:10:35;;;;;;;3.08;0.10;;;23.50;60.10;;;;;;5006140;28;20080;-44
2022/10/02 07:13:24;;;;;;;0.63;0.43;;;23.50;60.00;;;;;;5006231;28;20052;-43
2022/10/02 07:16:07;;;;;;;0.40;0.10;;;23.50;59.80;;;;;;5012039;28;20108;-43
2022/10/02 07:18:49;;;;;;;1.35;0.10;;;23.50;60.00;;;;;;5006762;28;20054;-45
2022/10/02 07:21:26;;;;;;;0.20;0.10;;;23.60;60.10;;;;;;5020899;28;20555;-46
2022/10/02 07:24:00;;;;;;;5.15;0.25;;;23.60;60.10;;;;;;5003904;28;20149;-46
2022/10/02 07:26:45;;;;;;;0.68;0.03;;;23.70;60.10;;;;;;5006376;28;20153;-48
2022/10/02 07:29:32;;;;;;;0.32;0.10;;;23.70;60.00;;;;;;5002113;28;20049;-47
2022/10/02 07:32:32;;;;;;;0.35;0.15;;;23.70;59.90;;;;;;5006021;28;20112;-47
2022/10/02 07:35:13;;;;;;;2.35;0.20;;;23.70;59.60;;;;;;5041765;28;20778;-47
2022/10/02 07:37:49;;;;;;;2.60;1.00;;;23.70;59.40;;;;;;5047871;28;20175;-48
2022/10/02 07:40:34;;;;;;;0.22;0.10;;;23.70;59.10;;;;;;5049009;28;20111;-48
2022/10/02 07:43:16;;;;;;;1.90;0.10;;;23.70;59.50;;;;;;5048846;28;20045;-47
2022/10/02 07:45:51;;;;;;;0.10;0.10;;;23.70;58.70;;;;;;5056173;28;20040;-47
2022/10/02 07:48:37;;;;;;;2.45;0.10;;;23.70;58.60;;;;;;5067175;28;20116;-46
2022/10/02 07:54:22;;;;;;;3.75;0.10;;;23.70;58.20;;;;;;5054638;28;20037;-46
2022/10/02 07:56:52;;;;;;;0.10;0.10;;;23.70;58.20;;;;;;5081497;28;20561;-46
2022/10/02 07:59:20;;;;;;;1.45;0.10;;;23.70;58.10;;;;;;5067827;28;20135;-46
2022/10/02 08:01:49;;;;;;;0.15;0.10;;;23.70;58.00;;;;;;5066345;28;20053;-46
2022/10/02 08:04:24;;;;;;;1.38;0.10;;;23.70;58.00;;;;;;5056086;28;20056;-47
2022/10/02 08:06:57;;;;;;;0.82;0.10;;;23.70;57.90;;;;;;5060075;28;20068;-47
2022/10/02 08:09:34;;;;;;;0.45;0.10;;;23.70;57.80;;;;;;5051593;28;20045;-48
2022/10/02 08:12:09;;;;;;;1.45;0.30;;;23.80;57.60;;;;;;5055530;28;20056;-50
2022/10/02 08:14:39;;;;;;;0.47;0.10;;;23.70;57.50;;;;;;5048413;28;20575;-47
2022/10/02 08:17:22;;;;;;;1.75;0.10;;;23.80;57.40;;;;;;5048638;28;20049;-49
2022/10/02 08:19:52;;;;;;;1.52;0.10;;;23.80;57.20;;;;;;5047985;28;20079;-49
2022/10/02 08:22:25;;;;;;;0.85;0.10;;;23.80;57.10;;;;;;5063303;28;20064;-46
2022/10/02 08:24:56;;;;;;;1.65;0.20;;;23.80;57.00;;;;;;5065579;28;20543;-49
2022/10/02 08:27:28;;;;;;;0.73;0.73;;;23.80;57.00;;;;;;5061216;28;20570;-46
2022/10/02 08:29:58;;;;;;;1.00;0.10;;;23.80;56.90;;;;;;5059268;28;20068;-49
2022/10/02 08:32:30;;;;;;;0.80;0.10;;;23.80;56.80;;;;;;5043593;28;20055;-48
2022/10/02 08:34:59;;;;;;;1.45;0.10;;;23.90;56.80;;;;;;5047749;28;20047;-47
2022/10/02 08:37:33;;;;;;;2.45;0.10;;;23.90;56.70;;;;;;5048304;28;20044;-48
2022/10/02 08:40:32;;;;;;;1.08;0.20;;;23.90;56.60;;;;;;5057711;28;20508;-48
2022/10/02 08:43:32;;;;;;;0.85;0.10;;;23.90;56.40;;;;;;5042550;28;20087;-49
2022/10/02 08:46:28;;;;;;;0.30;0.10;;;23.90;56.40;;;;;;5040900;28;20045;-46
2022/10/02 08:49:26;;;;;;;1.08;0.10;;;23.90;56.30;;;;;;5047670;28;20045;-47
2022/10/02 08:52:26;;;;;;;2.78;0.10;;;23.90;56.30;;;;;;5011863;28;20046;-54
2022/10/02 08:55:26;;;;;;;7.22;0.20;;;24.00;56.40;;;;;;5015716;28;20413;-48
2022/10/02 08:58:15;;;;;;;1.70;0.10;;;23.90;56.20;;;;;;5018418;28;20063;-50
2022/10/02 09:00:52;;;;;;;2.90;0.10;;;24.00;56.20;;;;;;5024671;28;20137;-47
2022/10/02 09:03:45;;;;;;;1.48;0.10;;;24.00;56.20;;;;;;5000739;28;20049;-47
2022/10/02 09:06:59;;;;;;;0.77;0.70;;;24.00;56.10;;;;;;4965635;28;20051;-45
2022/10/02 09:10:09;;;;;;;0.85;0.10;;;24.00;56.00;;;;;;4925417;29;20740;-47
2022/10/02 09:13:21;;;;;;;2.20;0.17;;;24.00;56.60;;;;;;4862048;29;20049;-46
2022/10/02 09:15:59;;;;;;;0.40;0.10;;;24.10;56.00;;;;;;4798194;29;20065;-46
2022/10/02 09:18:48;;;;;;;1.52;0.10;;;24.00;56.00;;;;;;4812277;29;20062;-45
2022/10/02 09:21:17;;;;;;;2.47;0.20;;;24.10;55.90;;;;;;4815837;29;20057;-45
2022/10/02 09:24:17;;;;;;;0.20;0.10;;;24.10;55.90;;;;;;4797037;29;20067;-46
2022/10/02 09:27:35;;;;;;;1.70;0.13;;;24.10;55.70;;;;;;4798059;29;20046;-46
2022/10/02 09:30:53;;;;;;;1.60;0.10;;;24.10;55.60;;;;;;4821929;29;20167;-49
2022/10/02 09:43:37;;;;;;;0.90;0.10;;;24.10;55.70;;;;;;4780829;29;20511;-47
2022/10/02 09:46:35;;;;;;;0.20;0.00;;;24.10;55.60;;;;;;4814973;29;20581;-46
2022/10/02 09:49:42;;;;;;;2.65;0.10;;;24.20;55.60;;;;;;4829545;29;20442;-45
2022/10/02 09:52:40;;;;;;;1.75;0.10;;;24.20;55.60;;;;;;4832384;29;20058;-45
2022/10/02 09:55:54;;;;;;;0.08;0.08;;;24.20;55.50;;;;;;4829257;29;20492;-45
2022/10/02 09:58:55;;;;;;;1.23;0.10;;;24.20;55.40;;;;;;4833273;29;20145;-45
2022/10/02 10:02:10;;;;;;;1.48;0.00;;;24.20;55.40;;;;;;4859403;29;20068;-45
2022/10/02 10:05:09;;;;;;;1.05;0.10;;;24.30;55.40;;;;;;4895813;29;20517;-47
2022/10/02 10:07:54;;;;;;;0.82;0.10;;;24.30;55.30;;;;;;4900032;28;20521;-45
2022/10/02 10:10:55;;;;;;;0.05;0.00;;;24.30;55.30;;;;;;4965450;28;20102;-46
2022/10/02 10:13:48;;;;;;;0.80;0.30;;;24.30;55.20;;;;;;4991226;28;20051;-46
2022/10/02 10:16:50;;;;;;;0.15;0.10;;;24.40;55.30;;;;;;5022338;28;20055;-47
2022/10/02 10:19:40;;;;;;;0.52;0.10;;;24.40;55.10;;;;;;5033743;28;20139;-48
2022/10/02 10:23:00;;;;;;;0.77;0.63;;;24.40;55.20;;;;;;5039716;28;20388;-47
2022/10/02 10:25:55;;;;;;;0.15;0.10;;;24.40;55.10;;;;;;4946052;28;20048;-48
2022/10/02 10:28:52;;;;;;;3.50;0.57;;;24.40;55.10;;;;;;4942307;28;20522;-45
2022/10/02 10:31:50;;;;;;;;;;;24.40;55.00;;;;;;4996491;28;20062;-47
2022/10/02 10:34:59;;;;;;;0.52;0.08;;;24.40;55.00;;;;;;5002080;28;19922;-47
2022/10/02 10:40:42;;;;;;;2.08;0.25;;;24.40;55.10;;;;;;5007284;28;20050;-51
2022/10/02 10:43:50;;;;;;;1.10;0.15;;;24.40;55.10;;;;;;4990320;28;20200;-48
2022/10/02 10:46:57;;;;;;;1.45;0.10;;;24.40;55.00;;;;;;5006712;28;20600;-47
2022/10/02 10:50:01;;;;;;;0.57;0.10;;;24.50;55.00;;;;;;4993307;28;20046;-49
2022/10/02 10:53:03;;;;;;;0.10;0.00;;;24.50;55.00;;;;;;4926573;29;20264;-46
2022/10/02 10:55:45;;;;;;;0.65;0.10;;;24.50;55.00;;;;;;4921528;29;20457;-45
2022/10/02 10:58:21;;;;;;;0.10;0.10;;;24.50;55.00;;;;;;4934708;28;20056;-45
2022/10/02 11:01:05;;;;;;;0.77;0.00;;;24.50;54.80;;;;;;5007012;28;20136;-45
2022/10/02 11:04:14;;;;;;;0.05;0.00;;;24.50;54.80;;;;;;5006324;28;20046;-47
2022/10/02 11:07:00;;;;;;;1.27;0.43;;;24.60;54.80;;;;;;4931104;29;20059;-48
2022/10/02 11:09:53;;;;;;;0.10;0.00;;;24.60;54.70;;;;;;4948369;29;20810;-45
2022/10/02 11:12:48;;;;;;;2.38;0.10;;;24.60;54.60;;;;;;4947875;29;20142;-47
2022/10/02 11:15:44;;;;;;;0.40;0.00;;;24.60;54.50;;;;;;4945945;29;20072;-46
2022/10/02 11:18:31;;;;;;;0.00;0.00;;;24.60;54.50;;;;;;4942777;28;20595;-45
2022/10/02 11:21:28;;;;;;;1.20;0.05;;;24.60;54.40;;;;;;4925362;29;20511;-45
2022/10/02 11:24:24;;;;;;;1.13;0.00;;;24.60;54.40;;;;;;4924879;29;20051;-45
2022/10/02 11:27:03;;;;;;;0.40;0.10;;;24.60;54.40;;;;;;4878774;29;20083;-45
2022/10/02 11:29:58;;;;;;;0.10;0.10;;;24.60;54.40;;;;;;4907890;29;20524;-46
2022/10/02 11:32:46;;;;;;;0.10;0.00;;;24.70;54.30;;;;;;4943192;29;20970;-45
2022/10/02 11:35:23;;;;;;;0.65;0.00;;;24.70;54.30;;;;;;4947753;29;20055;-46
2022/10/02 11:38:14;;;;;;;0.70;0.38;;;24.70;54.20;;;;;;4947835;29;20051;-46
2022/10/02 11:41:03;;;;;;;2.05;0.00;;;24.70;54.20;;;;;;4947625;29;20118;-46
2022/10/02 11:43:57;;;;;;;0.65;0.00;;;24.70;54.10;;;;;;4999633;28;20570;-46
2022/10/02 11:46:51;;;;;;;0.00;0.00;;;24.70;54.00;;;;;;4999434;28;20048;-45
2022/10/02 11:49:42;;;;;;;1.52;0.00;;;24.70;54.00;;;;;;4987031;28;20065;-47
2022/10/02 11:52:23;;;;;;;0.50;0.00;;;24.70;53.90;;;;;;4991486;28;20517;-45
2022/10/02 11:55:02;;;;;;;0.55;0.55;;;24.70;53.90;;;;;;4996952;28;20149;-49
2022/10/02 11:57:46;;;;;;;0.13;0.00;;;24.70;53.90;;;;;;5005205;28;20189;-46
2022/10/02 12:00:34;;;;;;;0.45;0.45;;;24.70;54.00;;;;;;5005505;28;20113;-46
2022/10/02 12:03:12;;;;;;;0.17;0.00;;;24.70;54.10;;;;;;5017291;28;20055;-46
2022/10/02 12:05:54;;;;;;;1.55;0.00;;;24.70;54.30;;;;;;5067898;28;20042;-47
2022/10/02 12:08:33;;;;;;;0.10;0.00;;;24.70;54.40;;;;;;5043609;28;20037;-49
2022/10/02 12:11:09;;;;;;;0.20;0.00;;;24.70;54.40;;;;;;5067341;28;20052;-46
2022/10/02 12:13:58;;;;;;;1.25;0.73;;;24.80;54.60;;;;;;5066131;28;20048;-47
2022/10/02 12:16:33;;;;;;;1.55;0.03;;;24.70;54.70;;;;;;5049933;28;20226;-46
2022/10/02 12:19:19;;;;;;;0.22;0.08;;;24.70;54.60;;;;;;5050213;28;20136;-47
2022/10/02 12:27:45;;;;;;;0.30;0.10;;;24.80;54.70;;;;;;5051155;28;20037;-45
2022/10/02 12:30:16;;;;;;;1.13;0.08;;;24.80;54.70;;;;;;5066810;28;20146;-52
2022/10/02 12:32:55;;;;;;;0.90;0.43;;;24.80;54.80;;;;;;5065761;28;20143;-48
2022/10/02 12:35:47;;;;;;;1.40;0.10;;;24.80;54.90;;;;;;5053243;28;20140;-45
2022/10/02 12:38:32;;;;;;;0.15;0.00;;;24.80;54.90;;;;;;5065630;28;20489;-47
2022/10/02 12:41:08;;;;;;;0.45;0.10;;;24.90;55.10;;;;;;5067288;28;20051;-46
2022/10/02 12:43:54;;;;;;;0.55;0.00;;;24.80;55.20;;;;;;5042671;28;20564;-50
2022/10/02 12:46:48;;;;;;;1.90;0.10;;;24.90;55.20;;;;;;5047461;28;20068;-46
2022/10/02 12:49:28;;;;;;;1.55;0.00;;;24.80;55.10;;;;;;5046679;28;20055;-47
2022/10/02 12:52:40;;;;;;;0.95;0.00;;;24.90;55.20;;;;;;5054767;28;20406;-45
2022/10/02 12:55:41;;;;;;;0.00;0.00;;;24.90;55.10;;;;;;5047838;28;20497;-47
2022/10/02 12:58:21;;;;;;;0.10;0.00;;;24.80;55.00;;;;;;5023470;28;20488;-47
2022/10/02 13:01:10;;;;;;;0.35;0.00;;;24.90;55.30;;;;;;5000928;28;20050;-45
2022/10/02 13:04:09;;;;;;;0.57;0.00;;;24.90;55.20;;;;;;5005577;28;20049;-45
2022/10/02 13:07:24;;;;;;;0.10;0.10;;;24.90;55.10;;;;;;5001285;28;20050;-46
2022/10/02 13:10:02;;;;;;;0.10;0.00;;;24.90;55.10;;;;;;5009038;28;20061;-46
2022/10/02 13:12:50;;;;;;;0.95;0.00;;;24.90;55.10;;;;;;5024612;28;20060;-45
2022/10/02 13:15:35;;;;;;;0.00;0.00;;;24.90;55.10;;;;;;5024337;28;20144;-45
2022/10/02 13:18:21;;;;;;;0.00;0.00;;;24.90;55.10;;;;;;5007717;28;20124;-45
2022/10/02 13:21:00;;;;;;;2.00;0.43;;;24.90;55.10;;;;;;5018541;28;20446;-49
2022/10/02 13:23:34;;;;;;;0.68;0.00;;;25.00;55.10;;;;;;5020446;28;20425;-46
2022/10/02 13:26:11;;;;;;;0.47;0.00;;;25.00;55.10;;;;;;5015574;28;20069;-47
2022/10/02 13:28:56;;;;;;;1.85;0.00;;;25.00;55.00;;;;;;5018988;28;20561;-45
2022/10/02 13:31:39;;;;;;;0.00;0.00;;;25.00;54.90;;;;;;5007115;28;20108;-46
2022/10/02 13:34:24;;;;;;;0.30;0.10;;;25.10;55.00;;;;;;5008205;28;20069;-46
2022/10/02 13:37:06;;;;;;;0.08;0.08;;;25.10;54.90;;;;;;5047734;28;20127;-46
2022/10/02 13:39:59;;;;;;;0.20;0.20;;;25.10;54.90;;;;;;5047656;28;20037;-46
2022/10/02 13:42:38;;;;;;;0.10;0.00;;;25.20;54.90;;;;;;5043318;28;20508;-46
2022/10/02 13:45:16;;;;;;;0.05;0.00;;;25.10;54.80;;;;;;5059905;28;20072;-46
2022/10/02 13:47:55;;;;;;;0.30;0.00;;;25.10;54.70;;;;;;5070710;28;20477;-45
2022/10/02 13:50:31;;;;;;;0.68;0.00;;;25.10;54.70;;;;;;5064916;28;20120;-45
2022/10/02 13:53:10;;;;;;;;;;;25.10;54.60;;;;;;5058031;28;20131;-46
2022/10/02 13:55:45;;;;;;;0.10;0.00;;;25.10;54.60;;;;;;5070585;28;19947;-47
2022/10/02 13:58:28;;;;;;;1.25;0.00;;;25.10;54.70;;;;;;5070757;28;20498;-46
2022/10/02 14:01:20;;;;;;;1.77;0.35;;;25.10;54.50;;;;;;5070832;28;20068;-46
2022/10/02 14:04:16;;;;;;;0.00;0.00;;;25.20;54.50;;;;;;5063826;28;20040;-48
2022/10/02 14:06:48;;;;;;;0.08;0.00;;;25.20;54.40;;;;;;5054791;28;20139;-47
2022/10/02 14:09:27;;;;;;;0.20;0.00;;;25.20;54.60;;;;;;5068952;28;20106;-47
2022/10/02 14:12:23;;;;;;;0.20;0.00;;;25.20;54.80;;;;;;5045388;28;20536;-47
2022/10/02 14:15:16;;;;;;;0.65;0.00;;;25.20;54.60;;;;;;5048920;28;20460;-48
2022/10/02 14:17:57;;;;;;;0.85;0.10;;;25.20;54.60;;;;;;5049312;28;20155;-49
2022/10/02 14:20:37;;;;;;;1.35;0.00;;;25.20;54.50;;;;;;5050841;28;20049;-48
2022/10/02 14:23:18;;;;;;;0.85;0.00;;;25.20;54.40;;;;;;5049065;28;20044;-47